createdAt,value
2018-11-22T00:01:08.341Z,20.45
2018-11-22T00:03:37.927Z,22.90
2018-11-22T00:06:08.008Z,23.67
2018-11-22T00:08:37.888Z,19.98
2018-11-22T00:11:07.542Z,21.52
2018-11-22T00:13:36.299Z,23.40
2018-11-22T00:16:06.139Z,23.50
2018-11-22T00:18:35.493Z,30.35
2018-11-22T00:21:05.067Z,22.80
2018-11-22T00:23:34.230Z,27.98
2018-11-22T00:26:03.235Z,25.60
2018-11-22T00:28:32.224Z,21.73
2018-11-22T00:31:01.225Z,27.40
2018-11-22T00:33:30.531Z,22.07
2018-11-22T00:35:59.663Z,22.90
2018-11-22T00:38:28.345Z,20.40
2018-11-22T00:40:57.600Z,25.08
2018-11-22T00:43:27.305Z,23.05
2018-11-22T00:45:57.433Z,24.02
2018-11-22T00:48:26.791Z,22.85
2018-11-22T00:50:57.030Z,21.80
2018-11-22T00:53:26.177Z,19.15
2018-11-22T00:55:56.253Z,27.15
2018-11-22T00:58:26.144Z,23.70
2018-11-22T01:00:55.632Z,20.88
2018-11-22T01:03:27.131Z,19.10
2018-11-22T01:05:56.457Z,23.35
2018-11-22T01:08:25.493Z,21.00
2018-11-22T01:10:54.554Z,22.30
2018-11-22T01:13:23.955Z,20.45
2018-11-22T01:15:53.281Z,18.25
2018-11-22T01:18:23.552Z,20.90
2018-11-22T01:20:52.984Z,24.80
2018-11-22T01:23:22.954Z,21.25
2018-11-22T01:25:52.994Z,24.07
2018-11-22T01:28:23.009Z,25.35
2018-11-22T01:30:52.489Z,25.85
2018-11-22T01:33:22.222Z,20.95
2018-11-22T01:35:51.650Z,27.67
2018-11-22T01:38:20.661Z,22.42
2018-11-22T01:40:50.928Z,23.55
2018-11-22T01:43:19.957Z,25.10
2018-11-22T01:45:48.953Z,23.40
2018-11-22T01:48:18.358Z,22.13
2018-11-22T01:50:47.329Z,19.80
2018-11-22T01:53:16.357Z,25.85
2018-11-22T01:55:45.441Z,23.65
2018-11-22T01:58:15.169Z,25.88
2018-11-22T02:00:44.801Z,26.05
2018-11-22T02:03:13.921Z,26.05
2018-11-22T02:05:43.245Z,26.12
2018-11-22T02:08:12.860Z,23.50
2018-11-22T02:10:41.928Z,22.77
2018-11-22T02:13:11.511Z,21.95
2018-11-22T02:15:41.257Z,21.40
2018-11-22T02:18:10.911Z,22.00
2018-11-22T02:20:40.258Z,22.35
2018-11-22T02:23:08.940Z,20.55
2018-11-22T02:25:38.651Z,23.92
2018-11-22T02:28:08.097Z,23.07
2018-11-22T02:30:37.498Z,23.32
2018-11-22T02:33:06.599Z,25.00
2018-11-22T02:35:36.238Z,20.25
2018-11-22T02:38:05.784Z,23.85
2018-11-22T02:40:35.861Z,26.50
2018-11-22T02:43:07.564Z,24.30
2018-11-22T02:45:37.645Z,23.32
2018-11-22T02:48:18.198Z,23.90
2018-11-22T02:50:48.525Z,21.33
2018-11-22T02:53:17.536Z,25.50
2018-11-22T02:55:46.726Z,22.90
2018-11-22T02:58:16.160Z,25.80
2018-11-22T03:00:46.433Z,22.60
2018-11-22T03:03:17.050Z,26.60
2018-11-22T03:05:47.327Z,22.50
2018-11-22T03:08:17.337Z,28.77
2018-11-22T03:10:46.982Z,23.50
2018-11-22T03:13:17.658Z,26.27
2018-11-22T03:15:47.231Z,25.35
2018-11-22T03:18:16.355Z,25.43
2018-11-22T03:20:45.760Z,34.65
2018-11-22T03:23:14.483Z,27.00
2018-11-22T03:25:44.389Z,21.12
2018-11-22T03:28:14.177Z,23.42
2018-11-22T03:30:43.506Z,25.35
2018-11-22T03:33:12.855Z,24.02
2018-11-22T03:35:42.256Z,25.55
2018-11-22T03:38:12.950Z,28.95
2018-11-22T03:40:42.012Z,28.30
2018-11-22T03:43:11.700Z,33.85
2018-11-22T03:45:41.170Z,41.02
2018-11-22T03:48:16.229Z,34.78
2018-11-22T03:50:45.533Z,46.85
2018-11-22T03:53:14.800Z,43.73
2018-11-22T03:55:43.952Z,48.92
2018-11-22T03:58:13.007Z,50.28
2018-11-22T04:00:41.987Z,52.20
2018-11-22T04:03:11.717Z,42.10
2018-11-22T04:05:40.684Z,52.45
2018-11-22T04:08:10.017Z,47.10
2018-11-22T04:10:39.357Z,50.33
2018-11-22T04:13:08.302Z,53.68
2018-11-22T04:15:37.629Z,50.90
2018-11-22T04:18:06.812Z,49.55
2018-11-22T04:20:36.164Z,46.15
2018-11-22T04:23:06.182Z,60.70
2018-11-22T04:25:35.221Z,53.70
2018-11-22T04:28:05.728Z,50.28
2018-11-22T04:30:35.176Z,66.65
2018-11-22T04:33:03.926Z,58.75
2018-11-22T04:35:32.981Z,81.85
2018-11-22T04:38:02.385Z,59.95
2018-11-22T04:40:32.606Z,74.40
2018-11-22T04:43:01.706Z,60.43
2018-11-22T04:45:30.394Z,68.15
2018-11-22T04:48:03.678Z,67.55
2018-11-22T04:50:34.105Z,82.53
2018-11-22T04:53:05.047Z,69.67
2018-11-22T04:55:34.446Z,68.87
2018-11-22T04:58:03.487Z,83.87
2018-11-22T05:00:32.872Z,80.67
2018-11-22T05:03:01.875Z,78.37
2018-11-22T05:05:31.264Z,71.50
2018-11-22T05:08:00.906Z,70.78
2018-11-22T05:10:29.975Z,66.50
2018-11-22T05:12:59.246Z,74.72
2018-11-22T05:15:30.140Z,69.58
2018-11-22T05:17:59.478Z,68.72
2018-11-22T05:20:28.174Z,67.30
2018-11-22T05:22:57.214Z,71.95
2018-11-22T05:25:26.729Z,70.52
2018-11-22T05:27:56.414Z,76.35
2018-11-22T05:30:27.036Z,81.85
2018-11-22T05:32:56.305Z,67.12
2018-11-22T05:35:25.463Z,69.05
2018-11-22T05:37:54.993Z,76.92
2018-11-22T05:40:25.698Z,59.18
2018-11-22T05:42:54.845Z,65.95
2018-11-22T05:45:25.910Z,78.05
2018-11-22T05:47:55.484Z,72.15
2018-11-22T05:50:26.278Z,66.53
2018-11-22T05:52:56.974Z,71.00
2018-11-22T05:55:26.865Z,85.42
2018-11-22T05:57:55.926Z,67.72
2018-11-22T06:00:31.742Z,58.90
2018-11-22T06:03:02.809Z,61.85
2018-11-22T06:05:32.844Z,65.37
2018-11-22T06:08:01.945Z,61.70
2018-11-22T06:10:33.508Z,53.58
2018-11-22T06:13:03.476Z,59.70
2018-11-22T06:15:32.855Z,67.10
2018-11-22T06:18:02.192Z,59.38
2018-11-22T06:20:32.150Z,62.13
2018-11-22T06:23:01.508Z,60.43
2018-11-22T06:25:31.723Z,56.53
2018-11-22T06:28:01.043Z,61.53
2018-11-22T06:30:31.754Z,63.92
2018-11-22T06:33:02.042Z,58.28
2018-11-22T06:35:32.428Z,59.83
2018-11-22T06:38:01.466Z,57.05
2018-11-22T06:40:30.998Z,61.75
2018-11-22T06:43:00.740Z,62.88
2018-11-22T06:45:32.508Z,61.95
2018-11-22T06:48:01.894Z,57.15
2018-11-22T06:50:31.240Z,58.75
2018-11-22T06:53:00.316Z,62.65
2018-11-22T06:55:31.634Z,57.33
2018-11-22T06:58:00.944Z,54.05
2018-11-22T07:00:31.254Z,50.20
2018-11-22T07:03:02.220Z,57.58
2018-11-22T07:05:30.924Z,56.00
2018-11-22T07:08:00.489Z,54.40
2018-11-22T07:10:29.192Z,56.73
2018-11-22T07:12:59.333Z,54.83
2018-11-22T07:15:28.365Z,49.50
2018-11-22T07:17:57.445Z,48.13
2018-11-22T07:20:28.407Z,52.80
2018-11-22T07:22:59.232Z,44.42
2018-11-22T07:25:28.318Z,53.40
2018-11-22T07:27:57.387Z,51.00
2018-11-22T07:30:34.359Z,48.25
2018-11-22T07:33:04.793Z,50.92
2018-11-22T07:35:34.633Z,52.80
2018-11-22T07:38:04.054Z,46.70
2018-11-22T07:40:34.021Z,54.40
2018-11-22T07:43:03.238Z,54.13
2018-11-22T07:45:36.406Z,50.00
2018-11-22T07:48:06.866Z,55.52
2018-11-22T07:50:36.475Z,55.43
2018-11-22T07:53:06.081Z,49.73
2018-11-22T07:55:35.056Z,59.80
2018-11-22T07:58:04.200Z,51.40
2018-11-22T08:00:36.270Z,54.35
2018-11-22T08:03:06.524Z,55.08
2018-11-22T08:05:37.752Z,62.43
2018-11-22T08:08:07.931Z,59.05
2018-11-22T08:10:36.969Z,57.00
2018-11-22T08:13:06.741Z,57.80
2018-11-22T08:15:37.701Z,56.08
2018-11-22T08:18:07.397Z,53.98
2018-11-22T08:20:36.448Z,55.98
2018-11-22T08:23:06.113Z,58.10
2018-11-22T08:25:36.024Z,51.85
2018-11-22T08:28:06.720Z,55.73
2018-11-22T08:30:35.440Z,61.73
2018-11-22T08:33:04.713Z,57.65
2018-11-22T08:35:33.674Z,62.15
2018-11-22T08:38:02.666Z,52.95
2018-11-22T08:40:31.885Z,59.73
2018-11-22T08:43:01.737Z,61.68
2018-11-22T08:45:32.100Z,53.75
2018-11-22T08:48:01.322Z,61.18
2018-11-22T08:50:30.862Z,59.63
2018-11-22T08:53:01.291Z,57.70
2018-11-22T08:55:30.560Z,60.58
2018-11-22T08:58:00.091Z,61.53
2018-11-22T09:00:30.038Z,63.60
2018-11-22T09:03:01.180Z,58.90
2018-11-22T09:05:36.930Z,62.17
2018-11-22T09:08:09.319Z,66.35
2018-11-22T09:10:40.044Z,69.47
2018-11-22T09:13:09.602Z,56.37
2018-11-22T09:15:39.869Z,66.85
2018-11-22T09:18:10.255Z,59.13
2018-11-22T09:20:39.892Z,69.55
2018-11-22T09:23:09.719Z,66.77
2018-11-22T09:25:39.863Z,72.40
2018-11-22T09:28:10.017Z,70.17
2018-11-22T09:30:40.280Z,70.40
2018-11-22T09:33:10.873Z,73.12
2018-11-22T09:35:40.611Z,64.92
2018-11-22T09:38:10.359Z,70.80
2018-11-22T09:40:40.807Z,64.37
2018-11-22T09:43:11.192Z,66.00
2018-11-22T09:45:42.072Z,60.58
2018-11-22T09:48:12.160Z,73.07
2018-11-22T09:50:41.990Z,62.17
2018-11-22T09:53:12.127Z,69.40
2018-11-22T09:55:40.961Z,71.35
2018-11-22T09:58:10.686Z,70.95
2018-11-22T10:00:40.500Z,74.70
2018-11-22T10:03:11.555Z,77.42
2018-11-22T10:05:40.803Z,68.42
2018-11-22T10:08:10.265Z,67.82
2018-11-22T10:10:41.279Z,72.17
2018-11-22T10:13:11.689Z,77.08
2018-11-22T10:15:40.884Z,74.92
2018-11-22T10:18:10.595Z,63.63
2018-11-22T10:20:42.455Z,63.48
2018-11-22T10:23:11.464Z,71.87
2018-11-22T10:25:41.448Z,81.35
2018-11-22T10:28:10.552Z,65.72
2018-11-22T10:30:41.208Z,77.12
2018-11-22T10:33:10.709Z,64.35
2018-11-22T10:35:40.945Z,73.10
2018-11-22T10:38:11.476Z,61.35
2018-11-22T10:40:41.116Z,67.45
2018-11-22T10:43:11.064Z,61.63
2018-11-22T10:45:41.117Z,67.78
2018-11-22T10:48:12.286Z,65.90
2018-11-22T10:50:40.949Z,61.23
2018-11-22T10:53:11.107Z,63.50
2018-11-22T10:55:42.818Z,59.13
2018-11-22T10:58:11.795Z,63.05
2018-11-22T11:00:58.698Z,69.22
2018-11-22T11:03:48.070Z,58.58
2018-11-22T11:06:42.103Z,55.63
2018-11-22T11:09:11.043Z,54.83
2018-11-22T11:11:40.938Z,63.65
2018-11-22T11:14:11.057Z,58.05
2018-11-22T11:16:41.393Z,57.35
2018-11-22T11:19:12.503Z,56.35
2018-11-22T11:21:41.891Z,54.73
2018-11-22T11:24:12.021Z,52.03
2018-11-22T11:26:41.306Z,52.15
2018-11-22T11:29:15.337Z,49.67
2018-11-22T11:31:50.671Z,52.50
2018-11-22T11:34:22.331Z,53.73
2018-11-22T11:36:51.743Z,54.55
2018-11-22T11:39:22.807Z,54.90
2018-11-22T11:41:52.163Z,58.35
2018-11-22T11:44:21.333Z,61.00
2018-11-22T11:46:52.469Z,54.88
2018-11-22T11:49:23.118Z,51.70
2018-11-22T11:52:00.951Z,56.10
2018-11-22T11:54:31.918Z,51.83
2018-11-22T11:57:02.310Z,52.80
2018-11-22T11:59:33.854Z,62.00
2018-11-22T12:02:03.090Z,53.00
2018-11-22T12:04:33.616Z,53.42
2018-11-22T12:07:02.678Z,52.67
2018-11-22T12:09:32.858Z,58.60
2018-11-22T12:12:03.319Z,54.63
2018-11-22T12:14:33.368Z,47.05
2018-11-22T12:17:02.620Z,51.83
2018-11-22T12:19:34.759Z,53.55
2018-11-22T12:22:05.170Z,51.95
2018-11-22T12:24:34.743Z,48.70
2018-11-22T12:27:03.739Z,45.52
2018-11-22T12:29:32.415Z,49.83
2018-11-22T12:32:18.917Z,47.03
2018-11-22T12:35:11.942Z,57.98
2018-11-22T12:37:43.302Z,51.90
2018-11-22T12:40:12.438Z,48.45
2018-11-22T12:42:41.407Z,55.60
2018-11-22T12:45:10.100Z,52.88
2018-11-22T12:47:39.190Z,56.68
2018-11-22T12:50:09.696Z,55.55
2018-11-22T12:52:40.038Z,55.35
2018-11-22T12:55:11.130Z,59.80
2018-11-22T12:57:40.281Z,62.93
2018-11-22T13:00:12.228Z,66.42
2018-11-22T13:02:42.446Z,71.05
2018-11-22T13:05:13.545Z,73.45
2018-11-22T13:07:42.814Z,71.02
2018-11-22T13:10:16.565Z,65.95
2018-11-22T13:12:46.769Z,62.83
2018-11-22T13:15:17.220Z,61.05
2018-11-22T13:17:46.120Z,76.62
2018-11-22T13:20:18.011Z,67.75
2018-11-22T13:22:47.792Z,66.02
2018-11-22T13:25:18.447Z,68.78
2018-11-22T13:27:47.440Z,69.07
2018-11-22T13:30:18.580Z,63.48
2018-11-22T13:32:48.165Z,68.67
2018-11-22T13:35:18.066Z,62.75
2018-11-22T13:37:48.350Z,61.58
2018-11-22T13:40:18.301Z,75.05
2018-11-22T13:42:48.710Z,70.40
2018-11-22T13:45:23.603Z,65.32
2018-11-22T13:47:53.597Z,60.17
2018-11-22T13:50:25.295Z,58.50
2018-11-22T13:52:57.301Z,59.35
2018-11-22T13:55:26.557Z,57.10
2018-11-22T13:57:55.930Z,57.40
2018-11-22T14:00:26.583Z,59.33
2018-11-22T14:02:57.015Z,60.40
2018-11-22T14:05:26.346Z,51.75
2018-11-22T14:07:56.194Z,58.85
2018-11-22T14:10:25.248Z,56.63
2018-11-22T14:12:54.073Z,53.75
2018-11-22T14:15:24.619Z,61.75
2018-11-22T14:17:55.237Z,52.10
2018-11-22T14:20:28.622Z,59.25
2018-11-22T14:22:57.647Z,62.38
2018-11-22T14:25:26.745Z,56.85
2018-11-22T14:27:56.183Z,53.28
2018-11-22T14:30:27.163Z,69.32
2018-11-22T14:32:56.907Z,56.18
2018-11-22T14:35:26.790Z,66.60
2018-11-22T14:37:56.557Z,55.75
2018-11-22T14:40:30.409Z,68.35
2018-11-22T14:42:59.647Z,55.67
2018-11-22T14:45:30.222Z,57.20
2018-11-22T14:48:01.970Z,63.68
2018-11-22T14:50:39.246Z,60.23
2018-11-22T14:53:10.133Z,50.83
2018-11-22T14:55:39.183Z,55.83
2018-11-22T14:58:09.430Z,50.75
2018-11-22T15:00:38.188Z,52.88
2018-11-22T15:03:07.571Z,58.45
2018-11-22T15:05:36.679Z,57.30
2018-11-22T15:08:05.988Z,53.63
2018-11-22T15:10:35.428Z,55.98
2018-11-22T15:13:05.478Z,61.15
2018-11-22T15:15:34.858Z,60.17
2018-11-22T15:18:04.066Z,54.88
2018-11-22T15:20:32.806Z,50.30
2018-11-22T15:23:01.825Z,46.35
2018-11-22T15:25:30.819Z,54.18
2018-11-22T15:27:59.877Z,50.20
2018-11-22T15:30:30.217Z,58.42
2018-11-22T15:33:00.485Z,60.98
2018-11-22T15:35:30.475Z,56.80
2018-11-22T15:38:00.481Z,54.38
2018-11-22T15:40:29.670Z,57.23
2018-11-22T15:43:00.618Z,57.33
2018-11-22T15:45:34.762Z,66.87
2018-11-22T15:47:59.723Z,58.25
2018-11-22T15:50:29.338Z,52.58
2018-11-22T15:52:58.348Z,48.45
2018-11-22T15:55:27.723Z,56.45
2018-11-22T15:57:57.956Z,52.65
2018-11-22T16:00:34.251Z,58.50
2018-11-22T16:03:03.726Z,59.08
2018-11-22T16:05:33.387Z,56.40
2018-11-22T16:08:02.619Z,50.40
2018-11-22T16:10:33.733Z,58.25
2018-11-22T16:13:07.873Z,57.85
2018-11-22T16:15:51.821Z,57.67
2018-11-22T16:18:21.231Z,56.95
2018-11-22T16:20:50.363Z,58.95
2018-11-22T16:23:19.486Z,55.73
2018-11-22T16:25:49.267Z,56.60
2018-11-22T16:28:17.951Z,44.23
2018-11-22T16:30:47.318Z,47.17
2018-11-22T16:33:17.058Z,45.28
2018-11-22T16:35:46.795Z,50.12
2018-11-22T16:38:16.375Z,46.55
2018-11-22T16:40:46.292Z,54.75
2018-11-22T16:43:15.908Z,48.85
2018-11-22T16:45:44.902Z,50.40
2018-11-22T16:48:14.921Z,54.00
2018-11-22T16:50:44.364Z,54.15
2018-11-22T16:53:13.519Z,56.90
2018-11-22T16:55:42.582Z,54.30
2018-11-22T16:58:12.311Z,55.90
2018-11-22T17:00:42.049Z,50.15
2018-11-22T17:03:12.919Z,57.10
2018-11-22T17:05:42.643Z,54.40
2018-11-22T17:08:13.090Z,57.00
2018-11-22T17:10:42.627Z,56.13
2018-11-22T17:13:11.929Z,62.17
2018-11-22T17:15:43.395Z,54.63
2018-11-22T17:18:12.747Z,58.45
2018-11-22T17:20:43.489Z,57.90
2018-11-22T17:23:12.498Z,52.53
2018-11-22T17:25:41.503Z,58.68
2018-11-22T17:28:10.718Z,58.92
2018-11-22T17:30:43.460Z,53.28
2018-11-22T17:33:13.843Z,69.95
2018-11-22T17:35:43.440Z,57.20
2018-11-22T17:38:14.998Z,53.75
2018-11-22T17:40:45.780Z,59.00
2018-11-22T17:43:15.454Z,61.60
2018-11-22T17:45:45.784Z,55.95
2018-11-22T17:48:17.023Z,56.15
2018-11-22T17:50:47.318Z,57.38
2018-11-22T17:53:16.423Z,52.05
2018-11-22T17:55:46.187Z,53.33
2018-11-22T17:58:16.639Z,51.37
2018-11-22T18:00:48.448Z,57.62
2018-11-22T18:03:17.507Z,54.05
2018-11-22T18:05:47.431Z,52.13
2018-11-22T18:08:18.752Z,53.42
2018-11-22T18:10:48.870Z,49.20
2018-11-22T18:13:18.356Z,56.45
2018-11-22T18:15:57.750Z,62.13
2018-11-22T18:18:28.493Z,54.03
2018-11-22T18:20:57.902Z,60.23
2018-11-22T18:23:26.966Z,63.10
2018-11-22T18:25:56.720Z,59.25
2018-11-22T18:28:27.833Z,57.23
2018-11-22T18:30:56.883Z,55.10
2018-11-22T18:33:25.951Z,60.52
2018-11-22T18:35:56.910Z,62.67
2018-11-22T18:38:25.967Z,63.80
2018-11-22T18:40:57.234Z,63.08
2018-11-22T18:43:25.957Z,59.03
2018-11-22T18:45:55.711Z,66.60
2018-11-22T18:48:25.499Z,57.17
2018-11-22T18:50:54.659Z,55.35
2018-11-22T18:53:24.881Z,59.93
2018-11-22T18:55:54.814Z,64.37
2018-11-22T18:58:23.791Z,58.92
2018-11-22T19:00:54.868Z,65.67
2018-11-22T19:03:24.333Z,60.12
2018-11-22T19:05:54.600Z,58.80
2018-11-22T19:08:24.656Z,65.75
2018-11-22T19:10:54.747Z,62.60
2018-11-22T19:13:23.813Z,58.73
2018-11-22T19:15:53.769Z,57.30
2018-11-22T19:18:22.513Z,61.25
2018-11-22T19:20:51.242Z,56.45
2018-11-22T19:23:20.643Z,54.85
2018-11-22T19:25:49.975Z,57.60
2018-11-22T19:28:19.933Z,66.10
2018-11-22T19:30:49.230Z,56.48
2018-11-22T19:33:19.760Z,66.20
2018-11-22T19:35:51.095Z,61.58
2018-11-22T19:38:20.558Z,63.45
2018-11-22T19:40:50.199Z,62.40
2018-11-22T19:43:19.180Z,57.15
2018-11-22T19:45:50.265Z,57.88
2018-11-22T19:48:19.299Z,54.40
2018-11-22T19:50:49.370Z,57.30
2018-11-22T19:53:18.310Z,59.23
2018-11-22T19:55:47.612Z,60.17
2018-11-22T19:58:17.774Z,61.53
2018-11-22T20:00:47.762Z,58.65
2018-11-22T20:03:16.457Z,63.23
2018-11-22T20:05:46.756Z,57.70
2018-11-22T20:08:17.762Z,57.40
2018-11-22T20:10:48.196Z,53.58
2018-11-22T20:13:17.490Z,59.20
2018-11-22T20:15:47.053Z,56.10
2018-11-22T20:18:15.790Z,60.15
2018-11-22T20:20:49.598Z,56.83
2018-11-22T20:23:17.638Z,59.48
2018-11-22T20:25:46.031Z,59.65
2018-11-22T20:28:15.327Z,59.18
2018-11-22T20:30:45.723Z,59.60
2018-11-22T20:33:14.451Z,62.62
2018-11-22T20:35:43.497Z,62.95
2018-11-22T20:38:13.877Z,56.70
2018-11-22T20:40:43.022Z,69.27
2018-11-22T20:43:12.059Z,64.55
2018-11-22T20:45:41.738Z,57.88
2018-11-22T20:48:11.813Z,61.83
2018-11-22T20:50:40.820Z,58.65
2018-11-22T20:53:09.508Z,62.45
2018-11-22T20:55:39.681Z,63.40
2018-11-22T20:58:08.374Z,54.30
2018-11-22T21:00:38.791Z,53.83
2018-11-22T21:03:07.967Z,55.50
2018-11-22T21:05:37.154Z,51.40
2018-11-22T21:08:05.866Z,56.48
2018-11-22T21:10:35.640Z,48.90
2018-11-22T21:13:04.650Z,53.10
2018-11-22T21:15:34.709Z,54.45
2018-11-22T21:18:05.122Z,50.75
2018-11-22T21:20:38.315Z,51.18
2018-11-22T21:23:07.925Z,51.95
2018-11-22T21:25:36.633Z,48.63
2018-11-22T21:28:06.951Z,50.08
2018-11-22T21:30:37.263Z,55.30
2018-11-22T21:33:07.067Z,46.85
2018-11-22T21:35:36.431Z,53.50
2018-11-22T21:38:07.866Z,50.65
2018-11-22T21:40:37.091Z,62.67
2018-11-22T21:43:07.209Z,54.18
2018-11-22T21:45:37.043Z,63.42
2018-11-22T21:48:05.977Z,72.72
2018-11-22T21:50:35.588Z,60.28
2018-11-22T21:53:04.275Z,63.65
2018-11-22T21:55:33.275Z,57.70
2018-11-22T21:58:02.933Z,54.27
2018-11-22T22:00:42.412Z,58.45
2018-11-22T22:03:12.626Z,65.12
2018-11-22T22:05:41.907Z,57.85
2018-11-22T22:08:10.627Z,55.30
2018-11-22T22:10:40.270Z,54.40
2018-11-22T22:13:09.697Z,60.92
2018-11-22T22:15:39.473Z,49.30
2018-11-22T22:18:09.776Z,49.65
2018-11-22T22:20:38.867Z,50.70
2018-11-22T22:23:13.308Z,60.50
2018-11-22T22:25:39.304Z,55.28
2018-11-22T22:28:08.255Z,57.15
2018-11-22T22:30:37.609Z,50.90
2018-11-22T22:33:07.624Z,53.23
2018-11-22T22:35:37.096Z,51.92
2018-11-22T22:38:05.792Z,58.78
2018-11-22T22:40:35.232Z,55.78
2018-11-22T22:43:04.578Z,60.55
2018-11-22T22:45:33.941Z,54.55
2018-11-22T22:48:03.466Z,63.80
2018-11-22T22:50:33.186Z,52.58
2018-11-22T22:53:02.609Z,63.00
2018-11-22T22:55:31.892Z,59.70
2018-11-22T22:58:01.526Z,58.35
2018-11-22T23:00:47.072Z,54.60
2018-11-22T23:03:17.315Z,55.92
2018-11-22T23:05:46.423Z,60.40
2018-11-22T23:08:15.917Z,58.65
2018-11-22T23:10:45.558Z,56.85
2018-11-22T23:13:14.605Z,55.50
2018-11-22T23:15:46.189Z,56.73
2018-11-22T23:18:15.263Z,61.68
2018-11-22T23:20:44.677Z,58.15
2018-11-22T23:23:13.854Z,64.15
2018-11-22T23:25:44.045Z,61.02
2018-11-22T23:28:13.591Z,72.25
2018-11-22T23:30:43.250Z,63.35
2018-11-22T23:33:12.646Z,63.33
2018-11-22T23:35:41.753Z,63.50
2018-11-22T23:38:16.552Z,65.50
2018-11-22T23:40:47.926Z,69.67
2018-11-22T23:43:18.735Z,68.30
2018-11-22T23:45:47.847Z,73.62
2018-11-22T23:48:17.312Z,60.88
2018-11-22T23:50:47.337Z,61.68
2018-11-22T23:53:16.431Z,69.25
2018-11-22T23:55:45.508Z,66.12
2018-11-22T23:58:14.556Z,62.98
